Terminal Aerodrome Forecast
Issued by NWS

Home | Current Version | Previous Version | Text Only | Print | Product List | Glossary On
Versions: 1 2 3 4 5 6 7 8 9 10 11 12 13 14 15
000
FTUS43 KEAX 270100 AAA
TAFSTJ
TAF AMD
KSTJ 270115Z 2701/2724 33014KT P6SM OVC015
      TEMPO 2701/2703 33015G23KT
     FM271200 VRB04KT P6SM BKN080
     FM271900 13006KT P6SM SCT250=

USA.gov is the U.S. government's official web portal to all federal, state and local government web resources and services.